Rockview, Missouri
Current Conditions -  °F | °C
As of 4:53 AM on Sunday 21 Dec 2014 (Local Time) from KCGI Reporting Station
Clear Clear  
Wind Chill: 29°   Ceiling: Unl
Heat Index: 29°   Visibility: 7mi
Dew Point: 28°   Wind: 3mph
Humidity: 96%   Direction: 70°ENE
Pressure: 30.25"   Gusts: NA
Location:  37.1651°N, 89.623°W
Report Text: KCGI 211053Z AUTO 07003KT 7SM CLR M02/M02 A3025 RMK AO2 SLP244 T10171022 TSNO
Loading
Personal Weather Stations






























Interactive Weather Map New forecast layout! Learn more

10-Day Weather Forecast

Advertisements
Track Severe Weather on mobile